createdAt,value
2019-02-02T00:00:21.367Z,34.57
2019-02-02T00:03:09.146Z,36.23
2019-02-02T00:05:56.774Z,35.90
2019-02-02T00:08:44.198Z,34.33
2019-02-02T00:11:31.930Z,34.30
2019-02-02T00:14:19.662Z,35.00
2019-02-02T00:17:06.982Z,36.70
2019-02-02T00:19:55.865Z,36.67
2019-02-02T00:22:43.277Z,36.43
2019-02-02T00:25:30.905Z,36.00
2019-02-02T00:28:18.530Z,34.03
2019-02-02T00:31:06.258Z,36.30
2019-02-02T00:33:53.999Z,36.43
2019-02-02T00:36:41.308Z,38.67
2019-02-02T00:39:29.153Z,34.13
2019-02-02T00:42:16.670Z,36.87
2019-02-02T00:45:07.696Z,38.27
2019-02-02T00:47:55.121Z,39.37
2019-02-02T00:50:43.191Z,40.70
2019-02-02T00:53:31.078Z,37.53
2019-02-02T00:56:18.813Z,37.93
2019-02-02T00:59:06.547Z,41.13
2019-02-02T01:01:54.076Z,42.67
2019-02-02T01:04:41.590Z,40.40
2019-02-02T01:07:28.603Z,42.23
2019-02-02T01:10:19.373Z,41.47
2019-02-02T01:13:06.829Z,40.17
2019-02-02T01:15:54.050Z,37.60
2019-02-02T01:18:41.473Z,46.47
2019-02-02T01:21:29.304Z,43.97
2019-02-02T01:24:16.504Z,39.20
2019-02-02T01:27:04.156Z,46.10
2019-02-02T01:29:52.091Z,43.60
2019-02-02T01:32:39.516Z,42.70
2019-02-02T01:35:27.354Z,47.57
2019-02-02T01:38:14.872Z,43.77
2019-02-02T01:41:02.367Z,42.33
2019-02-02T01:43:49.928Z,45.03
2019-02-02T01:46:37.248Z,46.10
2019-02-02T01:49:25.800Z,44.60
2019-02-02T01:52:13.323Z,46.77
2019-02-02T01:55:01.167Z,47.80
2019-02-02T01:57:48.278Z,49.97
2019-02-02T02:00:36.123Z,49.53
2019-02-02T02:03:23.762Z,47.90
2019-02-02T02:06:11.577Z,47.40
2019-02-02T02:08:58.897Z,47.43
2019-02-02T02:11:46.215Z,47.57
2019-02-02T02:14:33.842Z,46.97
2019-02-02T02:17:21.476Z,50.10
2019-02-02T02:20:11.651Z,48.10
2019-02-02T02:22:58.781Z,45.37
2019-02-02T02:25:46.511Z,47.43
2019-02-02T02:28:33.638Z,46.70
2019-02-02T02:31:20.948Z,44.37
2019-02-02T02:34:08.575Z,43.53
2019-02-02T02:36:55.811Z,47.67
2019-02-02T02:39:43.542Z,44.20
2019-02-02T02:42:31.362Z,43.73
2019-02-02T02:45:19.397Z,47.23
2019-02-02T02:48:07.230Z,45.87
2019-02-02T02:50:54.757Z,44.70
2019-02-02T02:53:41.975Z,45.93
2019-02-02T02:56:29.300Z,45.13
2019-02-02T02:59:17.030Z,47.47
2019-02-02T03:02:04.759Z,48.20
2019-02-02T03:04:52.188Z,51.50
2019-02-02T03:07:40.125Z,49.60
2019-02-02T03:10:27.545Z,48.23
2019-02-02T03:13:15.073Z,49.00
2019-02-02T03:16:02.699Z,52.90
2019-02-02T03:18:50.524Z,50.27
2019-02-02T03:21:37.958Z,49.27
2019-02-02T03:24:25.385Z,44.77
2019-02-02T03:27:12.958Z,46.00
2019-02-02T03:30:00.747Z,45.57
2019-02-02T03:32:48.283Z,47.73
2019-02-02T03:35:36.206Z,50.17
2019-02-02T03:38:23.838Z,45.07
2019-02-02T03:41:11.822Z,44.80
2019-02-02T03:43:59.200Z,50.17
2019-02-02T03:46:46.718Z,46.17
2019-02-02T03:49:35.169Z,45.43
2019-02-02T03:52:22.498Z,46.83
2019-02-02T03:55:12.782Z,48.50
2019-02-02T03:58:00.204Z,47.57
2019-02-02T04:00:47.833Z,45.93
2019-02-02T04:03:35.368Z,49.20
2019-02-02T04:06:22.578Z,44.17
2019-02-02T04:09:10.007Z,47.40
2019-02-02T04:11:57.124Z,41.50
2019-02-02T04:14:44.549Z,43.93
2019-02-02T04:17:31.970Z,42.07
2019-02-02T04:20:22.192Z,44.73
2019-02-02T04:23:09.705Z,47.10
2019-02-02T04:25:58.849Z,46.03
2019-02-02T04:28:46.065Z,44.93
2019-02-02T04:31:33.899Z,47.67
2019-02-02T04:34:21.325Z,48.23
2019-02-02T04:37:08.748Z,48.13
2019-02-02T04:39:55.763Z,45.20
2019-02-02T04:42:43.448Z,45.80
2019-02-02T04:45:31.019Z,46.37
2019-02-02T04:48:18.545Z,47.53
2019-02-02T04:51:06.189Z,47.10
2019-02-02T04:53:53.599Z,48.43
2019-02-02T04:56:41.330Z,52.40
2019-02-02T04:59:29.590Z,49.33
2019-02-02T05:02:18.438Z,48.60
2019-02-02T05:05:09.227Z,48.63
2019-02-02T05:07:56.658Z,48.17
2019-02-02T05:10:44.289Z,47.07
2019-02-02T05:13:31.816Z,49.80
2019-02-02T05:16:19.552Z,51.87
2019-02-02T05:19:07.380Z,49.97
2019-02-02T05:21:54.823Z,53.07
2019-02-02T05:24:42.533Z,57.27
2019-02-02T05:27:30.365Z,56.90
2019-02-02T05:30:20.959Z,58.30
2019-02-02T05:33:08.495Z,60.63
2019-02-02T05:35:55.915Z,59.43
2019-02-02T05:38:43.263Z,62.23
2019-02-02T05:41:30.765Z,60.27
2019-02-02T05:44:18.497Z,65.73
2019-02-02T05:47:05.944Z,67.63
2019-02-02T05:49:53.548Z,66.13
2019-02-02T05:52:41.076Z,65.83
2019-02-02T05:55:28.292Z,61.10
2019-02-02T05:58:15.921Z,66.37
2019-02-02T06:01:03.044Z,63.70
2019-02-02T06:03:50.567Z,60.73
2019-02-02T06:06:37.992Z,61.20
2019-02-02T06:09:25.417Z,62.83
2019-02-02T06:12:13.042Z,64.27
2019-02-02T06:15:00.672Z,63.70
2019-02-02T06:17:48.198Z,63.80
2019-02-02T06:20:35.625Z,62.57
2019-02-02T06:23:22.839Z,60.53
2019-02-02T06:26:10.265Z,58.67
2019-02-02T06:28:57.798Z,63.50
2019-02-02T06:31:45.418Z,64.93
2019-02-02T06:34:32.844Z,59.70
2019-02-02T06:37:20.165Z,58.03
2019-02-02T06:40:10.357Z,61.83
2019-02-02T06:42:57.675Z,54.90
2019-02-02T06:45:45.098Z,56.17
2019-02-02T06:48:32.741Z,59.23
2019-02-02T06:51:20.460Z,67.83
2019-02-02T06:54:08.294Z,60.83
2019-02-02T06:56:55.308Z,66.67
2019-02-02T06:59:42.833Z,63.67
2019-02-02T07:02:30.154Z,67.63
2019-02-02T07:05:17.890Z,69.93
2019-02-02T07:08:05.416Z,70.73
2019-02-02T07:10:52.752Z,68.37
2019-02-02T07:13:40.375Z,71.57
2019-02-02T07:16:30.757Z,74.73
2019-02-02T07:19:18.294Z,75.90
2019-02-02T07:22:05.919Z,74.53
2019-02-02T07:24:53.161Z,67.13
2019-02-02T07:27:40.861Z,67.43
2019-02-02T07:30:29.453Z,66.00
2019-02-02T07:33:17.348Z,69.43
2019-02-02T07:36:04.876Z,68.37
2019-02-02T07:38:53.126Z,65.10
2019-02-02T07:41:41.211Z,68.10
2019-02-02T07:44:29.208Z,73.67
2019-02-02T07:47:16.780Z,68.50
2019-02-02T07:50:06.196Z,66.13
2019-02-02T07:52:53.931Z,75.33
2019-02-02T07:55:41.041Z,74.57
2019-02-02T07:58:28.671Z,93.03
2019-02-02T08:01:18.169Z,84.40
2019-02-02T08:04:05.973Z,84.53
2019-02-02T08:06:53.296Z,91.37
2019-02-02T08:09:40.721Z,94.70
2019-02-02T08:12:28.248Z,100.63
2019-02-02T08:15:18.333Z,94.10
2019-02-02T08:18:06.492Z,89.83
2019-02-02T08:20:53.798Z,92.00
2019-02-02T08:23:41.630Z,91.33
2019-02-02T08:26:31.925Z,105.10
2019-02-02T08:29:19.556Z,109.67
2019-02-02T08:32:07.723Z,104.00
2019-02-02T08:34:55.331Z,105.97
2019-02-02T08:37:42.646Z,106.17
2019-02-02T08:40:30.269Z,104.30
2019-02-02T08:43:17.897Z,111.60
2019-02-02T08:46:05.449Z,112.30
2019-02-02T08:48:52.747Z,106.70
2019-02-02T08:51:40.275Z,116.13
2019-02-02T08:54:27.905Z,106.00
2019-02-02T08:57:15.343Z,112.27
2019-02-02T09:00:02.957Z,107.10
2019-02-02T09:02:50.696Z,113.67
2019-02-02T09:05:38.425Z,95.40
2019-02-02T09:08:26.050Z,108.17
2019-02-02T09:11:13.366Z,94.03
2019-02-02T09:14:00.688Z,84.90
2019-02-02T09:16:48.419Z,98.57
2019-02-02T09:19:35.847Z,99.47
2019-02-02T09:22:23.370Z,90.70
2019-02-02T09:25:13.001Z,96.83
2019-02-02T09:28:00.702Z,89.17
2019-02-02T09:30:48.012Z,93.60
2019-02-02T09:33:35.234Z,100.73
2019-02-02T09:36:22.954Z,92.97
2019-02-02T09:39:10.594Z,85.40
2019-02-02T09:41:59.434Z,93.13
2019-02-02T09:44:46.962Z,85.17
2019-02-02T09:47:34.486Z,99.03
2019-02-02T09:50:23.677Z,95.00
2019-02-02T09:53:11.177Z,91.93
2019-02-02T09:55:59.118Z,94.37
2019-02-02T09:58:46.892Z,94.43
2019-02-02T10:01:34.269Z,87.67
2019-02-02T10:04:21.795Z,92.13
2019-02-02T10:07:09.219Z,90.57
2019-02-02T10:09:56.849Z,85.13
2019-02-02T10:12:44.272Z,78.47
2019-02-02T10:15:31.592Z,80.07
2019-02-02T10:18:19.122Z,75.87
2019-02-02T10:21:06.648Z,78.10
2019-02-02T10:23:54.379Z,83.20
2019-02-02T10:26:42.006Z,83.80
2019-02-02T10:29:29.845Z,70.07
2019-02-02T10:32:17.267Z,71.77
2019-02-02T10:35:05.699Z,72.63
2019-02-02T10:37:53.342Z,72.97
2019-02-02T10:40:40.765Z,71.73
2019-02-02T10:43:28.000Z,79.20
2019-02-02T10:46:15.307Z,74.60
2019-02-02T10:49:02.628Z,71.93
2019-02-02T10:51:50.363Z,88.23
2019-02-02T10:54:37.883Z,77.23
2019-02-02T10:57:25.321Z,72.07
2019-02-02T11:00:19.293Z,77.93
2019-02-02T11:03:06.918Z,71.83
2019-02-02T11:05:54.334Z,70.07
2019-02-02T11:08:41.762Z,72.90
2019-02-02T11:11:29.290Z,75.83
2019-02-02T11:14:16.980Z,63.17
2019-02-02T11:17:04.759Z,65.30
2019-02-02T11:19:52.327Z,66.20
2019-02-02T11:22:40.186Z,70.57
2019-02-02T11:25:28.401Z,70.77
2019-02-02T11:28:15.906Z,69.87
2019-02-02T11:31:03.307Z,65.00
2019-02-02T11:33:50.835Z,69.43
2019-02-02T11:36:38.667Z,68.10
2019-02-02T11:39:25.988Z,71.03
2019-02-02T11:42:13.512Z,68.03
2019-02-02T11:45:01.043Z,72.47
2019-02-02T11:47:48.768Z,75.43
2019-02-02T11:50:36.193Z,73.53
2019-02-02T11:53:23.722Z,78.77
2019-02-02T11:56:11.144Z,80.27
2019-02-02T11:58:58.569Z,73.17
2019-02-02T12:01:45.898Z,73.90
2019-02-02T12:04:33.418Z,74.63
2019-02-02T12:07:21.871Z,71.13
2019-02-02T12:10:12.566Z,69.73
2019-02-02T12:13:00.301Z,69.03
2019-02-02T12:15:47.926Z,63.90
2019-02-02T12:18:35.761Z,62.60
2019-02-02T12:21:23.491Z,59.63
2019-02-02T12:24:15.907Z,68.20
2019-02-02T12:26:59.569Z,65.40
2019-02-02T12:29:47.196Z,73.27
2019-02-02T12:32:36.651Z,66.20
2019-02-02T12:35:25.890Z,64.00
2019-02-02T12:38:13.565Z,68.20
2019-02-02T12:41:01.475Z,70.50
2019-02-02T12:43:49.025Z,72.77
2019-02-02T12:46:36.860Z,71.43
2019-02-02T12:49:23.975Z,71.43
2019-02-02T12:52:11.812Z,68.93
2019-02-02T12:54:59.336Z,69.50
2019-02-02T12:57:47.070Z,66.27
2019-02-02T13:00:34.399Z,65.03
2019-02-02T13:03:22.121Z,63.80
2019-02-02T13:06:09.549Z,76.53
2019-02-02T13:08:56.976Z,72.87
2019-02-02T13:11:44.806Z,73.70
2019-02-02T13:14:32.122Z,77.83
2019-02-02T13:17:19.548Z,74.17
2019-02-02T13:20:12.386Z,74.27
2019-02-02T13:23:00.027Z,73.10
2019-02-02T13:25:47.822Z,69.27
2019-02-02T13:28:35.390Z,79.37
2019-02-02T13:31:22.640Z,77.53
2019-02-02T13:34:10.338Z,69.93
2019-02-02T13:36:57.661Z,75.37
2019-02-02T13:39:44.980Z,73.00
2019-02-02T13:42:32.405Z,76.40
2019-02-02T13:45:21.395Z,75.33
2019-02-02T13:48:09.198Z,85.10
2019-02-02T13:50:56.518Z,79.73
2019-02-02T13:53:43.637Z,83.33
2019-02-02T13:56:31.369Z,87.30
2019-02-02T13:59:18.896Z,84.33
2019-02-02T14:02:06.421Z,82.83
2019-02-02T14:04:53.538Z,73.13
2019-02-02T14:07:41.577Z,104.50
2019-02-02T14:10:31.061Z,117.17
2019-02-02T14:13:18.677Z,107.90
2019-02-02T14:16:05.900Z,116.13
2019-02-02T14:18:53.116Z,98.37
2019-02-02T14:21:40.546Z,79.93
2019-02-02T14:24:27.861Z,77.50
2019-02-02T14:27:15.081Z,76.47
2019-02-02T14:30:02.301Z,68.73
2019-02-02T14:32:49.927Z,67.97
2019-02-02T14:35:37.353Z,70.70
2019-02-02T14:38:25.292Z,74.23
2019-02-02T14:41:13.122Z,65.20
2019-02-02T14:44:00.766Z,71.77
2019-02-02T14:46:48.176Z,71.83
2019-02-02T14:49:35.599Z,75.93
2019-02-02T14:52:22.921Z,66.63
2019-02-02T14:55:16.285Z,75.57
2019-02-02T14:58:05.042Z,79.23
2019-02-02T15:00:54.001Z,80.20
2019-02-02T15:03:41.466Z,87.67
2019-02-02T15:06:28.743Z,75.27
2019-02-02T15:09:15.762Z,76.33
2019-02-02T15:12:02.843Z,69.90
2019-02-02T15:14:50.196Z,64.30
2019-02-02T15:17:37.316Z,66.03
2019-02-02T15:20:30.527Z,60.33
2019-02-02T15:23:17.936Z,76.53
2019-02-02T15:26:05.834Z,67.10
2019-02-02T15:28:52.846Z,74.37
2019-02-02T15:31:40.276Z,74.27
2019-02-02T15:34:27.797Z,62.23
2019-02-02T15:37:15.530Z,72.93
2019-02-02T15:40:03.053Z,74.87
2019-02-02T15:42:50.687Z,85.23
2019-02-02T15:45:38.109Z,88.57
2019-02-02T15:48:25.739Z,78.67
2019-02-02T15:51:13.177Z,79.67
2019-02-02T15:54:00.483Z,93.73
2019-02-02T15:56:48.132Z,87.57
2019-02-02T15:59:38.904Z,85.73
2019-02-02T16:02:26.607Z,85.80
2019-02-02T16:05:16.732Z,81.73
2019-02-02T16:08:10.468Z,70.90
2019-02-02T16:10:57.624Z,80.37
2019-02-02T16:13:45.253Z,77.77
2019-02-02T16:16:32.984Z,75.53
2019-02-02T16:19:20.418Z,84.97
2019-02-02T16:22:08.344Z,76.27
2019-02-02T16:24:56.281Z,75.10
2019-02-02T16:27:44.011Z,69.93
2019-02-02T16:30:31.535Z,76.47
2019-02-02T16:33:18.857Z,77.97
2019-02-02T16:36:06.898Z,76.93
2019-02-02T16:38:54.320Z,87.97
2019-02-02T16:41:41.551Z,77.13
2019-02-02T16:44:29.376Z,71.27
2019-02-02T16:47:17.102Z,68.53
2019-02-02T16:50:06.189Z,77.27
2019-02-02T16:52:53.898Z,71.60
2019-02-02T16:55:41.536Z,78.60
2019-02-02T16:58:29.156Z,81.17
2019-02-02T17:01:16.805Z,172.33
2019-02-02T17:04:15.077Z,122.93
2019-02-02T17:06:53.679Z,79.17
2019-02-02T17:09:41.572Z,70.90
2019-02-02T17:12:29.143Z,71.07
2019-02-02T17:15:16.612Z,71.60
2019-02-02T17:18:04.499Z,70.27
2019-02-02T17:20:51.616Z,61.10
2019-02-02T17:23:39.455Z,65.07
2019-02-02T17:26:26.775Z,79.13
2019-02-02T17:29:14.503Z,71.67
2019-02-02T17:32:02.133Z,67.27
2019-02-02T17:34:49.465Z,64.57
2019-02-02T17:37:36.879Z,62.47
2019-02-02T17:40:26.666Z,62.27
2019-02-02T17:43:13.922Z,62.83
2019-02-02T17:46:03.057Z,78.63
2019-02-02T17:48:50.260Z,69.97
2019-02-02T17:51:37.693Z,70.33
2019-02-02T17:54:25.011Z,81.30
2019-02-02T17:57:12.434Z,79.87
2019-02-02T18:00:00.615Z,86.60
2019-02-02T18:02:48.513Z,86.40
2019-02-02T18:05:35.729Z,86.20
2019-02-02T18:08:23.502Z,117.87
2019-02-02T18:11:11.233Z,133.23
2019-02-02T18:13:59.640Z,90.37
2019-02-02T18:16:46.752Z,93.97
2019-02-02T18:19:34.383Z,143.30
2019-02-02T18:22:21.808Z,93.13
2019-02-02T18:25:11.690Z,91.50
2019-02-02T18:27:58.882Z,81.83
2019-02-02T18:30:51.045Z,106.13
2019-02-02T18:33:38.877Z,98.20
2019-02-02T18:36:29.589Z,88.13
2019-02-02T18:39:17.604Z,77.33
2019-02-02T18:42:05.244Z,90.27
2019-02-02T18:44:52.698Z,75.63
2019-02-02T18:47:40.399Z,107.83
2019-02-02T18:50:28.614Z,85.73
2019-02-02T18:53:16.272Z,72.27
2019-02-02T18:56:04.239Z,74.40
2019-02-02T18:58:51.833Z,69.17
2019-02-02T19:01:38.850Z,86.37
2019-02-02T19:04:26.275Z,125.63
2019-02-02T19:07:13.697Z,109.77
2019-02-02T19:10:01.018Z,104.80
2019-02-02T19:12:48.447Z,104.87
2019-02-02T19:15:35.972Z,146.03
2019-02-02T19:18:23.504Z,113.63
2019-02-02T19:21:11.330Z,128.07
2019-02-02T19:23:59.062Z,135.40
2019-02-02T19:26:46.084Z,118.43
2019-02-02T19:29:33.811Z,127.27
2019-02-02T19:32:20.927Z,128.77
2019-02-02T19:35:16.310Z,111.77
2019-02-02T19:37:59.688Z,94.63
2019-02-02T19:40:47.193Z,94.63
2019-02-02T19:43:34.614Z,98.73
2019-02-02T19:46:22.037Z,96.87
2019-02-02T19:49:09.465Z,90.50
2019-02-02T19:51:58.320Z,101.20
2019-02-02T19:54:45.536Z,99.23
2019-02-02T19:57:32.870Z,92.50
2019-02-02T20:00:28.499Z,102.57
2019-02-02T20:03:16.105Z,113.30
2019-02-02T20:06:03.531Z,107.97
2019-02-02T20:08:51.057Z,114.10
2019-02-02T20:11:38.589Z,103.63
2019-02-02T20:14:25.703Z,113.83
2019-02-02T20:17:14.797Z,101.07
2019-02-02T20:20:01.882Z,103.60
2019-02-02T20:22:49.802Z,99.13
2019-02-02T20:25:37.446Z,94.40
2019-02-02T20:28:25.278Z,86.67
2019-02-02T20:31:12.617Z,88.23
2019-02-02T20:34:00.050Z,86.73
2019-02-02T20:36:47.446Z,78.07
2019-02-02T20:39:35.278Z,84.20
2019-02-02T20:42:22.678Z,80.33
2019-02-02T20:45:13.096Z,77.40
2019-02-02T20:48:00.521Z,81.13
2019-02-02T20:50:48.456Z,81.07
2019-02-02T20:53:36.392Z,68.67
2019-02-02T20:56:24.224Z,82.87
2019-02-02T20:59:11.548Z,77.80
2019-02-02T21:01:59.077Z,71.23
2019-02-02T21:04:46.704Z,69.27
2019-02-02T21:07:34.332Z,69.07
2019-02-02T21:10:23.635Z,79.13
2019-02-02T21:13:10.820Z,77.57
2019-02-02T21:15:58.244Z,76.37
2019-02-02T21:18:45.472Z,77.87
2019-02-02T21:21:32.887Z,71.70
2019-02-02T21:24:20.515Z,81.73
2019-02-02T21:27:07.629Z,77.33
2019-02-02T21:29:55.055Z,89.87
2019-02-02T21:32:46.749Z,77.70
2019-02-02T21:35:34.621Z,78.67
2019-02-02T21:38:22.143Z,80.10
2019-02-02T21:41:09.473Z,78.40
2019-02-02T21:43:56.753Z,83.40
2019-02-02T21:46:44.322Z,81.63
2019-02-02T21:49:31.735Z,71.30
2019-02-02T21:52:19.463Z,79.03
2019-02-02T21:55:10.064Z,69.40
2019-02-02T21:57:57.692Z,64.90
2019-02-02T22:00:45.528Z,69.50
2019-02-02T22:03:32.646Z,111.47
2019-02-02T22:06:20.170Z,98.50
2019-02-02T22:09:08.635Z,71.43
2019-02-02T22:11:56.043Z,68.80
2019-02-02T22:14:43.685Z,61.13
2019-02-02T22:17:31.198Z,72.17
2019-02-02T22:20:19.029Z,63.50
2019-02-02T22:23:06.145Z,60.43
2019-02-02T22:25:53.366Z,60.90
2019-02-02T22:28:40.994Z,58.87
2019-02-02T22:31:28.628Z,55.83
2019-02-02T22:34:16.047Z,60.43
2019-02-02T22:37:03.598Z,57.93
2019-02-02T22:39:51.309Z,59.73
2019-02-02T22:42:38.936Z,56.17
2019-02-02T22:45:26.152Z,60.07
2019-02-02T22:48:13.475Z,59.53
2019-02-02T22:51:01.208Z,60.77
2019-02-02T22:53:48.425Z,58.27
2019-02-02T22:56:35.951Z,63.07
2019-02-02T22:59:23.276Z,58.67
2019-02-02T23:02:11.722Z,65.97
2019-02-02T23:05:02.741Z,61.73
2019-02-02T23:07:53.092Z,62.87
2019-02-02T23:10:46.490Z,58.97
2019-02-02T23:13:45.923Z,62.57
2019-02-02T23:16:33.213Z,62.20
2019-02-02T23:19:20.636Z,64.73
2019-02-02T23:22:08.160Z,56.83
2019-02-02T23:24:55.892Z,63.97
2019-02-02T23:27:43.317Z,61.43
2019-02-02T23:30:30.793Z,63.83
2019-02-02T23:33:18.285Z,64.10
2019-02-02T23:36:06.146Z,62.50
2019-02-02T23:38:53.532Z,61.03
2019-02-02T23:41:41.053Z,61.87
2019-02-02T23:44:28.884Z,62.13
2019-02-02T23:47:16.411Z,60.97
2019-02-02T23:50:05.069Z,62.20
2019-02-02T23:52:52.717Z,58.40
2019-02-02T23:55:40.537Z,57.20
2019-02-02T23:58:27.965Z,57.43
